Terminal Aerodrome Forecast
Issued by NWS

Home | Current Version | Previous Version | Text Only | Print | Product List | Glossary On
Versions: 1 2 3 4 5 6 7 8 9 10 11 12 13 14 15 16 17 18 19 20 21 22 23 24 25
216
FTUS42 KCAE 281740
TAFCUB
TAF
KCUB 281740Z 2818/2918 08006KT P6SM BKN040 BKN060
     FM282000 08005KT P6SM VCSH SCT025 BKN035
     FM290000 07008KT 5SM -SHRA BR SCT025 OVC035
     FM290400 04005KT 4SM SHRA BR BKN025 OVC040
     FM291400 35009G17KT 5SM -SHRA BR SCT010 BKN020 OVC040=

USA.gov is the U.S. government's official web portal to all federal, state and local government web resources and services.